Grand Hero — 3EKW7 — position and weather

sailwx.info

Track history (hours):
 
Tides and Currents Weather Stations Pressure Air Temp Water Temp Dewpoint Dewpoint Depression Visibility Wind Speed Wind Dir Waves Ship Positions

Grand Hero

Last reported at 2018-Apr-19 07:43 UTC. Time now 2018-Apr-26 11:41 UTC.
Position N 33°27' E 138°20'.

Length 199 m; draft 9.4 m.

Type: Ship. MMSI: 372857000.

Date/timePositionNaut miles runAvg speedWind from/ knotsBaromVisibWave heightAir tempDewpointWater temp
2018-Apr-19 07:43N 33°27' E 138°20'717.0
2018-Apr-19 07:16N 33°26' E 138°11'717.1
2018-Apr-19 06:53N 33°25' E 138°03'816.9
2018-Apr-19 06:26N 33°25' E 137°54'1217.2
2018-Apr-19 05:45N 33°23' E 137°40'416.8
2018-Apr-19 05:30N 33°23' E 137°36'10816.5
2018-Apr-18 22:58N 33°23' E 135°27'917.4
2018-Apr-18 22:26N 33°28' E 135°17'916.9
2018-Apr-18 21:53N 33°34' E 135°09'718.1
2018-Apr-18 21:31N 33°40' E 135°04'918.2
2018-Apr-18 21:00N 33°48' E 134°59'917.8
2018-Apr-18 20:30N 33°56' E 134°58'917.9
2018-Apr-18 20:01N 34°05' E 134°57'815.2
2018-Apr-18 19:30N 34°13' E 134°58'713.3
2018-Apr-18 19:00N 34°19' E 134°59'917.7
2018-Apr-18 18:30N 34°26' E 135°06'918.0
2018-Apr-18 18:00N 34°33' E 135°13'714.1
2018-Apr-18 17:31N 34°38' E 135°18'3 5.6
2018-Apr-18 17:00N 34°41' E 135°17'0 0.1
2018-Apr-18 16:29N 34°41' E 135°17'0 0.0
2018-Apr-18 15:59N 34°41' E 135°17'0 0.0
2018-Apr-18 15:29N 34°41' E 135°17'0 0.0
2018-Apr-18 14:59N 34°41' E 135°17'0 0.0
2018-Apr-18 14:29N 34°41' E 135°17'0 0.0
2018-Apr-18 13:59N 34°41' E 135°17'0 0.0
2018-Apr-18 13:29N 34°41' E 135°17'0 0.0
2018-Apr-18 12:59N 34°41' E 135°17'0 0.0
2018-Apr-18 12:29N 34°41' E 135°17'0 0.0
2018-Apr-18 11:59N 34°41' E 135°17'0 0.0
2018-Apr-18 11:29N 34°41' E 135°17'0 0.0
2018-Apr-18 10:59N 34°41' E 135°17'0 0.0
2018-Apr-18 10:29N 34°41' E 135°17'0 0.0
2018-Apr-18 09:59N 34°41' E 135°17'0 0.0
2018-Apr-18 09:29N 34°41' E 135°17'0 0.0
2018-Apr-18 08:59N 34°41' E 135°17'0 0.0
2018-Apr-18 08:29N 34°41' E 135°17'0 0.0
2018-Apr-18 07:59N 34°41' E 135°17'0 0.0
2018-Apr-18 07:29N 34°41' E 135°17'0 0.0
2018-Apr-18 06:56N 34°41' E 135°17'0 0.4
2018-Apr-18 06:30N 34°41' E 135°18'3 7.0
2018-Apr-18 06:00N 34°38' E 135°18'611.6
2018-Apr-18 05:30N 34°33' E 135°15'816.1
2018-Apr-18 05:00N 34°27' E 135°09'816.3
2018-Apr-18 04:30N 34°20' E 135°02'714.0
2018-Apr-18 04:00N 34°14' E 134°59'510.7
2018-Apr-18 03:30N 34°08' E 134°59'5 9.0
2018-Apr-18 03:00N 34°04' E 134°58'4 7.5
2018-Apr-18 02:30N 34°00' E 134°58'4 9.0
2018-Apr-18 02:00N 33°56' E 134°57'714.9
2018-Apr-18 01:30N 33°49' E 134°55'815.6
2018-Apr-18 01:00N 33°41' E 134°51'66115.9
2018-Apr-16 07:23N 31°13' E 122°08'614.7
2018-Apr-16 07:00N 31°14' E 122°02'714.6
2018-Apr-16 06:30N 31°16' E 121°53'11 0.9
2018-Apr-15 18:05N 31°19' E 121°41'0 0.2
2018-Apr-15 17:52N 31°19' E 121°41'0 1.1
2018-Apr-15 17:30N 31°20' E 121°41'4 7.6
2018-Apr-15 17:00N 31°18' E 121°46'4 8.8
2018-Apr-15 16:30N 31°17' E 121°50'6 8.9
2018-Apr-15 15:51N 31°15' E 121°57'4 9.8
2018-Apr-15 15:29N 31°15' E 122°01'17 8.9
2018-Apr-15 13:32N 31°06' E 122°19'0 7.2
2018-Apr-15 13:30N 31°06' E 122°19'5 6.6
2018-Apr-15 12:49N 31°07' E 122°24'2 7.1
2018-Apr-15 12:30N 31°07' E 122°27'4 6.9
2018-Apr-15 11:52N 31°07' E 122°32'3 7.3
2018-Apr-15 11:29N 31°07' E 122°35'4 7.2
2018-Apr-15 10:58N 31°07' E 122°40'610.8
2018-Apr-15 10:27N 31°06' E 122°46'711.4
2018-Apr-15 09:50N 31°05' E 122°54'8 8.0
2018-Apr-15 08:47N 31°10' E 123°02'1 2.0
2018-Apr-15 08:15N 31°09' E 123°01'2 6.6
2018-Apr-15 07:56N 31°07' E 123°00'  
2018-Apr-13 03:40N 31°10' E 123°01'1 4.3
2018-Apr-13 03:24N 31°11' E 122°60'0 0.6
2018-Apr-13 02:58N 31°11' E 122°60'1 2.8
2018-Apr-13 02:30N 31°10' E 123°00'2 0.4
2018-Apr-12 22:11N 31°08' E 123°01'1 5.9
2018-Apr-12 22:00N 31°09' E 123°00'5 8.8
2018-Apr-12 21:28N 31°12' E 122°56'0 0.9
2018-Apr-12 21:00N 31°13' E 122°56'1 1.7
2018-Apr-12 20:22N 31°12' E 122°57'1 3.6
2018-Apr-12 20:00N 31°11' E 122°58'4 8.2
2018-Apr-12 19:30N 31°09' E 123°02'0 0.2
2018-Apr-12 18:23N 31°09' E 123°02'0 0.0
2018-Apr-12 18:00N 31°09' E 123°02'0 0.1
2018-Apr-12 17:28N 31°09' E 123°03'0 0.1
2018-Apr-12 17:00N 31°09' E 123°03'0 0.2
2018-Apr-12 16:29N 31°09' E 123°03'0 0.3
2018-Apr-12 16:00N 31°09' E 123°03'1 0.6
2018-Apr-12 14:17N 31°08' E 123°04'0 0.5
2018-Apr-12 13:58N 31°08' E 123°04'2 3.7
2018-Apr-12 13:22N 31°09' E 123°02'2 4.1
2018-Apr-12 12:58N 31°10' E 123°00'2 3.4
2018-Apr-12 12:30N 31°09' E 123°01'2 2.7
2018-Apr-12 11:53N 31°08' E 123°03'0 1.2
2018-Apr-12 11:30N 31°08' E 123°03'3 5.0
2018-Apr-12 10:59N 31°10' E 123°01'3 6.6
2018-Apr-12 10:29N 31°12' E 122°58'2 2.8
2018-Apr-12 09:53N 31°10' E 122°59'2 4.3
2018-Apr-12 09:30N 31°09' E 122°60'2 0.9
2018-Apr-12 07:39N 31°09' E 123°02'1 0.3
2018-Apr-12 03:19N 31°09' E 123°03'0 1.5
2018-Apr-12 03:00N 31°09' E 123°03'1 1.3
2018-Apr-12 02:30N 31°09' E 123°04'1 1.9
2018-Apr-12 01:51N 31°08' E 123°03'1 3.4
2018-Apr-12 01:29N 31°08' E 123°02'0 0.2
2018-Apr-12 00:58N 31°08' E 123°02'1 2.1
2018-Apr-12 00:30N 31°08' E 123°03'0 0.3
2018-Apr-11 23:50N 31°08' E 123°03'1 1.6
2018-Apr-11 23:26N 31°08' E 123°02'2 4.9
2018-Apr-11 23:00N 31°09' E 123°00'1 1.1
2018-Apr-11 22:30N 31°09' E 123°01'1 1.0
2018-Apr-11 22:00N 31°09' E 123°01'1 2.7
2018-Apr-11 21:30N 31°09' E 122°60'2 1.1
2018-Apr-11 19:54N 31°08' E 123°02'0 0.6
2018-Apr-11 19:30N 31°08' E 123°02'1 0.6
2018-Apr-11 17:54N 31°08' E 123°03'0 0.3
2018-Apr-11 17:29N 31°08' E 123°03'0 0.1
2018-Apr-11 16:59N 31°08' E 123°03'0 0.4
2018-Apr-11 16:29N 31°08' E 123°03'0 0.4
2018-Apr-11 15:59N 31°08' E 123°03'0 0.4
2018-Apr-11 15:29N 31°08' E 123°03'0 0.4
2018-Apr-11 15:00N 31°08' E 123°03'0 0.4
2018-Apr-11 14:30N 31°08' E 123°03'1 2.5
2018-Apr-11 14:00N 31°08' E 123°01'2 3.1
2018-Apr-11 13:30N 31°09' E 122°60'1 1.5
2018-Apr-11 12:44N 31°08' E 123°01'0 1.0
2018-Apr-11 12:30N 31°08' E 123°01'2 4.0
2018-Apr-11 11:59N 31°07' E 122°59'4 7.4
2018-Apr-11 11:29N 31°07' E 122°55'1 2.8
2018-Apr-11 10:59N 31°08' E 122°54'6 2.6
2018-Apr-11 08:43N 31°06' E 122°47'6 2.4
2018-Apr-11 06:06N 31°07' E 122°40'1 4.5
2018-Apr-11 05:46N 31°06' E 122°42'2 5.1
2018-Apr-11 05:24N 31°06' E 122°44'2 4.1
2018-Apr-11 04:56N 31°06' E 122°46'2 3.9
2018-Apr-11 04:24N 31°06' E 122°48'7 0.5
2018-Apr-10 15:43N 31°08' E 122°56'0 0.4
2018-Apr-10 15:09N 31°08' E 122°56'0 0.3
2018-Apr-10 13:50N 31°08' E 122°56'0 0.3
2018-Apr-10 13:18N 31°08' E 122°56'1 3.2
2018-Apr-10 12:57N 31°09' E 122°56'1 1.4
2018-Apr-10 12:09N 31°08' E 122°55'0 2.5
2018-Apr-10 12:00N 31°08' E 122°55'1 1.0
2018-Apr-10 11:27N 31°08' E 122°56'1 0.5
2018-Apr-10 09:17N 31°09' E 122°56'1 0.1
2018-Apr-09 22:16N 31°09' E 122°57'1 0.5
2018-Apr-09 20:16N 31°08' E 122°56'1 3.3
2018-Apr-09 19:59N 31°09' E 122°57'1 0.9
2018-Apr-09 18:48N 31°08' E 122°56'1 2.8
2018-Apr-09 18:25N 31°09' E 122°57'2 2.5
2018-Apr-09 17:46N 31°08' E 122°55'1 1.5
2018-Apr-09 17:13N 31°07' E 122°55'1 3.3
2018-Apr-09 16:59N 31°08' E 122°56'0 0.4
2018-Apr-09 16:06N 31°08' E 122°56'0 2.3
2018-Apr-09 16:00N 31°08' E 122°56'1 0.2
2018-Apr-09 09:07N 31°07' E 122°55'1 1.8
2018-Apr-09 08:41N 31°08' E 122°56'1 4.3
2018-Apr-09 08:30N 31°08' E 122°56'0 0.1
2018-Apr-09 07:59N 31°08' E 122°56'  
Track history (hours):
 
Tides and Currents Weather Stations Pressure Air Temp Water Temp Dewpoint Dewpoint Depression Visibility Wind Speed Wind Dir Waves Ship Positions

Grand Hero

Last reported at 2018-Apr-19 07:43 UTC. Time now 2018-Apr-26 11:41 UTC.
Position N 33°27' E 138°20'.

Length 199 m; draft 9.4 m.

Type: Ship. MMSI: 372857000.

Date/timePositionNaut miles runAvg speedWind from/ knotsBaromVisibWave heightAir tempDewpointWater temp
2018-Apr-19 07:43N 33°27' E 138°20'717.0
2018-Apr-19 07:16N 33°26' E 138°11'717.1
2018-Apr-19 06:53N 33°25' E 138°03'816.9
2018-Apr-19 06:26N 33°25' E 137°54'1217.2
2018-Apr-19 05:45N 33°23' E 137°40'416.8
2018-Apr-19 05:30N 33°23' E 137°36'10816.5
2018-Apr-18 22:58N 33°23' E 135°27'917.4
2018-Apr-18 22:26N 33°28' E 135°17'916.9
2018-Apr-18 21:53N 33°34' E 135°09'718.1
2018-Apr-18 21:31N 33°40' E 135°04'918.2
2018-Apr-18 21:00N 33°48' E 134°59'917.8
2018-Apr-18 20:30N 33°56' E 134°58'917.9
2018-Apr-18 20:01N 34°05' E 134°57'815.2
2018-Apr-18 19:30N 34°13' E 134°58'713.3
2018-Apr-18 19:00N 34°19' E 134°59'917.7
2018-Apr-18 18:30N 34°26' E 135°06'918.0
2018-Apr-18 18:00N 34°33' E 135°13'714.1
2018-Apr-18 17:31N 34°38' E 135°18'3 5.6
2018-Apr-18 17:00N 34°41' E 135°17'0 0.1
2018-Apr-18 16:29N 34°41' E 135°17'0 0.0
2018-Apr-18 15:59N 34°41' E 135°17'0 0.0
2018-Apr-18 15:29N 34°41' E 135°17'0 0.0
2018-Apr-18 14:59N 34°41' E 135°17'0 0.0
2018-Apr-18 14:29N 34°41' E 135°17'0 0.0
2018-Apr-18 13:59N 34°41' E 135°17'0 0.0
2018-Apr-18 13:29N 34°41' E 135°17'0 0.0
2018-Apr-18 12:59N 34°41' E 135°17'0 0.0
2018-Apr-18 12:29N 34°41' E 135°17'0 0.0
2018-Apr-18 11:59N 34°41' E 135°17'0 0.0
2018-Apr-18 11:29N 34°41' E 135°17'0 0.0
2018-Apr-18 10:59N 34°41' E 135°17'0 0.0
2018-Apr-18 10:29N 34°41' E 135°17'0 0.0
2018-Apr-18 09:59N 34°41' E 135°17'0 0.0
2018-Apr-18 09:29N 34°41' E 135°17'0 0.0
2018-Apr-18 08:59N 34°41' E 135°17'0 0.0
2018-Apr-18 08:29N 34°41' E 135°17'0 0.0
2018-Apr-18 07:59N 34°41' E 135°17'0 0.0
2018-Apr-18 07:29N 34°41' E 135°17'0 0.0
2018-Apr-18 06:56N 34°41' E 135°17'0 0.4
2018-Apr-18 06:30N 34°41' E 135°18'3 7.0
2018-Apr-18 06:00N 34°38' E 135°18'611.6
2018-Apr-18 05:30N 34°33' E 135°15'816.1
2018-Apr-18 05:00N 34°27' E 135°09'816.3
2018-Apr-18 04:30N 34°20' E 135°02'714.0
2018-Apr-18 04:00N 34°14' E 134°59'510.7
2018-Apr-18 03:30N 34°08' E 134°59'5 9.0
2018-Apr-18 03:00N 34°04' E 134°58'4 7.5
2018-Apr-18 02:30N 34°00' E 134°58'4 9.0
2018-Apr-18 02:00N 33°56' E 134°57'714.9
2018-Apr-18 01:30N 33°49' E 134°55'815.6
2018-Apr-18 01:00N 33°41' E 134°51'66115.9
2018-Apr-16 07:23N 31°13' E 122°08'614.7
2018-Apr-16 07:00N 31°14' E 122°02'714.6
2018-Apr-16 06:30N 31°16' E 121°53'11 0.9
2018-Apr-15 18:05N 31°19' E 121°41'0 0.2
2018-Apr-15 17:52N 31°19' E 121°41'0 1.1
2018-Apr-15 17:30N 31°20' E 121°41'4 7.6
2018-Apr-15 17:00N 31°18' E 121°46'4 8.8
2018-Apr-15 16:30N 31°17' E 121°50'6 8.9
2018-Apr-15 15:51N 31°15' E 121°57'4 9.8
2018-Apr-15 15:29N 31°15' E 122°01'17 8.9
2018-Apr-15 13:32N 31°06' E 122°19'0 7.2
2018-Apr-15 13:30N 31°06' E 122°19'5 6.6
2018-Apr-15 12:49N 31°07' E 122°24'2 7.1
2018-Apr-15 12:30N 31°07' E 122°27'4 6.9
2018-Apr-15 11:52N 31°07' E 122°32'3 7.3
2018-Apr-15 11:29N 31°07' E 122°35'4 7.2
2018-Apr-15 10:58N 31°07' E 122°40'610.8
2018-Apr-15 10:27N 31°06' E 122°46'711.4
2018-Apr-15 09:50N 31°05' E 122°54'8 8.0
2018-Apr-15 08:47N 31°10' E 123°02'1 2.0
2018-Apr-15 08:15N 31°09' E 123°01'2 6.6
2018-Apr-15 07:56N 31°07' E 123°00'  
2018-Apr-13 03:40N 31°10' E 123°01'1 4.3
2018-Apr-13 03:24N 31°11' E 122°60'0 0.6
2018-Apr-13 02:58N 31°11' E 122°60'1 2.8
2018-Apr-13 02:30N 31°10' E 123°00'2 0.4
2018-Apr-12 22:11N 31°08' E 123°01'1 5.9
2018-Apr-12 22:00N 31°09' E 123°00'5 8.8
2018-Apr-12 21:28N 31°12' E 122°56'0 0.9
2018-Apr-12 21:00N 31°13' E 122°56'1 1.7
2018-Apr-12 20:22N 31°12' E 122°57'1 3.6
2018-Apr-12 20:00N 31°11' E 122°58'4 8.2
2018-Apr-12 19:30N 31°09' E 123°02'0 0.2
2018-Apr-12 18:23N 31°09' E 123°02'0 0.0
2018-Apr-12 18:00N 31°09' E 123°02'0 0.1
2018-Apr-12 17:28N 31°09' E 123°03'0 0.1
2018-Apr-12 17:00N 31°09' E 123°03'0 0.2
2018-Apr-12 16:29N 31°09' E 123°03'0 0.3
2018-Apr-12 16:00N 31°09' E 123°03'1 0.6
2018-Apr-12 14:17N 31°08' E 123°04'0 0.5
2018-Apr-12 13:58N 31°08' E 123°04'2 3.7
2018-Apr-12 13:22N 31°09' E 123°02'2 4.1
2018-Apr-12 12:58N 31°10' E 123°00'2 3.4
2018-Apr-12 12:30N 31°09' E 123°01'2 2.7
2018-Apr-12 11:53N 31°08' E 123°03'0 1.2
2018-Apr-12 11:30N 31°08' E 123°03'3 5.0
2018-Apr-12 10:59N 31°10' E 123°01'3 6.6
2018-Apr-12 10:29N 31°12' E 122°58'2 2.8
2018-Apr-12 09:53N 31°10' E 122°59'2 4.3
2018-Apr-12 09:30N 31°09' E 122°60'2 0.9
2018-Apr-12 07:39N 31°09' E 123°02'1 0.3
2018-Apr-12 03:19N 31°09' E 123°03'0 1.5
2018-Apr-12 03:00N 31°09' E 123°03'1 1.3
2018-Apr-12 02:30N 31°09' E 123°04'1 1.9
2018-Apr-12 01:51N 31°08' E 123°03'1 3.4
2018-Apr-12 01:29N 31°08' E 123°02'0 0.2
2018-Apr-12 00:58N 31°08' E 123°02'1 2.1
2018-Apr-12 00:30N 31°08' E 123°03'0 0.3
2018-Apr-11 23:50N 31°08' E 123°03'1 1.6
2018-Apr-11 23:26N 31°08' E 123°02'2 4.9
2018-Apr-11 23:00N 31°09' E 123°00'1 1.1
2018-Apr-11 22:30N 31°09' E 123°01'1 1.0
2018-Apr-11 22:00N 31°09' E 123°01'1 2.7
2018-Apr-11 21:30N 31°09' E 122°60'2 1.1
2018-Apr-11 19:54N 31°08' E 123°02'0 0.6
2018-Apr-11 19:30N 31°08' E 123°02'1 0.6
2018-Apr-11 17:54N 31°08' E 123°03'0 0.3
2018-Apr-11 17:29N 31°08' E 123°03'0 0.1
2018-Apr-11 16:59N 31°08' E 123°03'0 0.4
2018-Apr-11 16:29N 31°08' E 123°03'0 0.4
2018-Apr-11 15:59N 31°08' E 123°03'0 0.4
2018-Apr-11 15:29N 31°08' E 123°03'0 0.4
2018-Apr-11 15:00N 31°08' E 123°03'0 0.4
2018-Apr-11 14:30N 31°08' E 123°03'1 2.5
2018-Apr-11 14:00N 31°08' E 123°01'2 3.1
2018-Apr-11 13:30N 31°09' E 122°60'1 1.5
2018-Apr-11 12:44N 31°08' E 123°01'0 1.0
2018-Apr-11 12:30N 31°08' E 123°01'2 4.0
2018-Apr-11 11:59N 31°07' E 122°59'4 7.4
2018-Apr-11 11:29N 31°07' E 122°55'1 2.8
2018-Apr-11 10:59N 31°08' E 122°54'6 2.6
2018-Apr-11 08:43N 31°06' E 122°47'6 2.4
2018-Apr-11 06:06N 31°07' E 122°40'1 4.5
2018-Apr-11 05:46N 31°06' E 122°42'2 5.1
2018-Apr-11 05:24N 31°06' E 122°44'2 4.1
2018-Apr-11 04:56N 31°06' E 122°46'2 3.9
2018-Apr-11 04:24N 31°06' E 122°48'7 0.5
2018-Apr-10 15:43N 31°08' E 122°56'0 0.4
2018-Apr-10 15:09N 31°08' E 122°56'0 0.3
2018-Apr-10 13:50N 31°08' E 122°56'0 0.3
2018-Apr-10 13:18N 31°08' E 122°56'1 3.2
2018-Apr-10 12:57N 31°09' E 122°56'1 1.4
2018-Apr-10 12:09N 31°08' E 122°55'0 2.5
2018-Apr-10 12:00N 31°08' E 122°55'1 1.0
2018-Apr-10 11:27N 31°08' E 122°56'1 0.5
2018-Apr-10 09:17N 31°09' E 122°56'1 0.1
2018-Apr-09 22:16N 31°09' E 122°57'1 0.5
2018-Apr-09 20:16N 31°08' E 122°56'1 3.3
2018-Apr-09 19:59N 31°09' E 122°57'1 0.9
2018-Apr-09 18:48N 31°08' E 122°56'1 2.8
2018-Apr-09 18:25N 31°09' E 122°57'2 2.5
2018-Apr-09 17:46N 31°08' E 122°55'1 1.5
2018-Apr-09 17:13N 31°07' E 122°55'1 3.3
2018-Apr-09 16:59N 31°08' E 122°56'0 0.4
2018-Apr-09 16:06N 31°08' E 122°56'0 2.3
2018-Apr-09 16:00N 31°08' E 122°56'1 0.2
2018-Apr-09 09:07N 31°07' E 122°55'1 1.8
2018-Apr-09 08:41N 31°08' E 122°56'1 4.3
2018-Apr-09 08:30N 31°08' E 122°56'0 0.1
2018-Apr-09 07:59N 31°08' E 122°56'  

Dump ship's entire track history